Time;durP1;ratioP1;P1;durP2;ratioP2;P2;SDS_P1;SDS_P2;PMS_P1;PMS_P2;Temp;Humidity;BMP_temperature;BMP_pressure;BME280_temperature;BME280_humidity;BME280_pressure;Samples;Min_cycle;Max_cycle;Signal;HPM_P1;HPM_P2
2023/11/12 00:01:41;;;;;;;9.50;4.18;;;;;;;;;;5924849;29;20067;-82
2023/11/12 00:04:43;;;;;;;8.60;4.82;;;;;;;;;;5911425;30;20474;-84
2023/11/12 00:07:45;;;;;;;12.15;5.18;;;;;;;;;;5914006;30;20424;-83
2023/11/12 00:10:47;;;;;;;9.20;4.85;;;;;;;;;;5910213;30;20059;-83
2023/11/12 00:13:49;;;;;;;10.48;5.38;;;;;;;;;;5899058;30;20043;-83
2023/11/12 00:16:51;;;;;;;10.30;5.70;;;;;;;;;;5910581;30;20056;-83
2023/11/12 00:19:54;;;;;;;9.75;5.55;;;;;;;;;;5913688;30;20185;-82
2023/11/12 00:22:56;;;;;;;11.80;6.33;;;;;;;;;;5909481;30;20075;-83
2023/11/12 00:25:57;;;;;;;10.40;6.10;;;;;;;;;;5917198;30;20722;-82
2023/11/12 00:29:00;;;;;;;11.10;6.07;;;;;;;;;;5898388;30;20078;-81
2023/11/12 00:32:03;;;;;;;12.53;5.77;;;;;;;;;;5902088;30;20107;-83
2023/11/12 00:35:06;;;;;;;10.18;5.90;;;;;;;;;;5905445;29;20428;-83
2023/11/12 00:38:08;;;;;;;12.80;6.53;;;;;;;;;;5914166;30;20056;-83
2023/11/12 00:41:10;;;;;;;11.85;5.30;;;;;;;;;;5890450;30;20039;-83
2023/11/12 00:44:12;;;;;;;11.15;5.65;;;;;;;;;;5915829;29;20594;-83
2023/11/12 00:47:14;;;;;;;8.03;4.97;;;;;;;;;;5915204;29;20056;-82
2023/11/12 00:50:16;;;;;;;10.02;5.60;;;;;;;;;;5916232;30;20512;-81
2023/11/12 00:53:19;;;;;;;11.50;6.25;;;;;;;;;;5914247;30;20062;-81
2023/11/12 00:56:21;;;;;;;8.32;5.20;;;;;;;;;;5915386;30;20051;-83
2023/11/12 00:59:23;;;;;;;11.35;6.13;;;;;;;;;;5912881;30;20051;-83
2023/11/12 01:02:24;;;;;;;12.43;6.10;;;;;;;;;;5912648;30;20048;-83
2023/11/12 01:05:27;;;;;;;13.50;6.00;;;;;;;;;;5903276;30;20070;-83
2023/11/12 01:08:29;;;;;;;17.00;7.55;;;;;;;;;;5900021;30;20048;-81
2023/11/12 01:11:31;;;;;;;17.10;8.00;;;;;;;;;;5899055;30;20231;-82
2023/11/12 01:14:33;;;;;;;15.27;7.47;;;;;;;;;;5900229;30;20583;-83
2023/11/12 01:17:35;;;;;;;17.10;8.20;;;;;;;;;;5908222;30;20044;-81
2023/11/12 01:20:37;;;;;;;16.73;6.60;;;;;;;;;;5917497;29;20056;-81
2023/11/12 01:23:39;;;;;;;15.20;5.63;;;;;;;;;;5899166;30;20060;-81
2023/11/12 01:26:40;;;;;;;15.88;6.85;;;;;;;;;;5897071;30;20059;-80
2023/11/12 01:29:43;;;;;;;13.50;6.03;;;;;;;;;;5898138;30;20428;-80
2023/11/12 01:32:45;;;;;;;12.18;6.15;;;;;;;;;;5914795;30;20063;-83
2023/11/12 01:35:47;;;;;;;10.90;4.90;;;;;;;;;;5929029;29;20060;-83
2023/11/12 01:38:48;;;;;;;10.50;5.53;;;;;;;;;;5913264;30;20059;-82
2023/11/12 01:41:51;;;;;;;16.88;6.70;;;;;;;;;;5911824;30;20562;-83
2023/11/12 01:44:53;;;;;;;17.37;7.43;;;;;;;;;;5914835;30;20051;-83
2023/11/12 01:47:55;;;;;;;15.77;5.93;;;;;;;;;;5926315;29;20051;-83
2023/11/12 01:50:58;;;;;;;12.73;5.50;;;;;;;;;;5911162;29;20107;-81
2023/11/12 01:54:02;;;;;;;14.38;6.15;;;;;;;;;;5911815;30;20140;-80
2023/11/12 01:57:04;;;;;;;;;;;;;;;;;;5901258;30;20399;-81
2023/11/12 02:00:10;;;;;;;13.43;6.13;;;;;;;;;;5899074;29;20652;-81
2023/11/12 02:03:19;;;;;;;12.52;6.50;;;;;;;;;;5903764;30;20052;-83
2023/11/12 02:06:21;;;;;;;11.48;6.05;;;;;;;;;;5905919;30;20070;-81
2023/11/12 02:09:23;;;;;;;14.20;6.70;;;;;;;;;;5917351;30;20072;-81
2023/11/12 02:12:25;;;;;;;10.93;6.55;;;;;;;;;;5918599;30;20055;-83
2023/11/12 02:15:28;;;;;;;12.77;6.65;;;;;;;;;;5897991;30;20063;-82
2023/11/12 02:18:30;;;;;;;11.48;6.22;;;;;;;;;;5895303;30;20055;-80
2023/11/12 02:21:32;;;;;;;13.93;6.75;;;;;;;;;;5899550;30;20062;-82
2023/11/12 02:24:34;;;;;;;13.93;6.25;;;;;;;;;;5920283;29;20134;-81
2023/11/12 02:27:38;;;;;;;14.38;6.97;;;;;;;;;;5913572;29;20070;-81
2023/11/12 02:30:41;;;;;;;14.23;6.97;;;;;;;;;;5912738;29;20055;-81
2023/11/12 02:33:43;;;;;;;;;;;;;;;;;;5923764;30;20082;-80
2023/11/12 02:36:45;;;;;;;11.50;6.03;;;;;;;;;;5921375;29;20384;-82
2023/11/12 02:39:47;;;;;;;9.57;5.88;;;;;;;;;;5915628;29;20076;-84
2023/11/12 02:42:49;;;;;;;10.88;6.57;;;;;;;;;;5922872;29;20158;-80
2023/11/12 02:45:52;;;;;;;13.38;6.30;;;;;;;;;;5911095;29;20075;-82
2023/11/12 02:49:22;;;;;;;12.63;6.80;;;;;;;;;;5920013;29;20059;-82
2023/11/12 02:52:26;;;;;;;11.13;5.63;;;;;;;;;;5903988;30;20047;-81
2023/11/12 02:55:29;;;;;;;11.45;6.32;;;;;;;;;;5936802;29;20047;-82
2023/11/12 02:58:30;;;;;;;9.88;6.07;;;;;;;;;;5908172;30;20075;-81
2023/11/12 03:01:32;;;;;;;12.55;6.65;;;;;;;;;;5920350;29;20060;-81
2023/11/12 03:04:34;;;;;;;11.95;6.10;;;;;;;;;;5921624;29;20055;-81
2023/11/12 03:07:36;;;;;;;11.18;6.28;;;;;;;;;;5936415;29;20059;-81
2023/11/12 03:10:42;;;;;;;10.67;6.33;;;;;;;;;;5918602;30;20059;-80
2023/11/12 03:13:43;;;;;;;11.52;6.45;;;;;;;;;;5911027;29;20069;-80
2023/11/12 03:16:48;;;;;;;12.77;6.03;;;;;;;;;;5933808;29;20048;-81
2023/11/12 03:19:50;;;;;;;10.45;6.25;;;;;;;;;;5915643;29;20055;-80
2023/11/12 03:22:53;;;;;;;10.95;6.22;;;;;;;;;;5908102;30;20054;-81
2023/11/12 03:25:55;;;;;;;9.23;5.40;;;;;;;;;;5902381;29;20059;-81
2023/11/12 03:28:57;;;;;;;10.93;5.90;;;;;;;;;;5917309;30;20057;-79
2023/11/12 03:31:59;;;;;;;11.15;6.20;;;;;;;;;;5918366;30;20051;-80
2023/11/12 03:35:01;;;;;;;13.85;5.97;;;;;;;;;;5940416;29;20051;-81
2023/11/12 03:38:03;;;;;;;12.65;5.55;;;;;;;;;;5938087;29;20526;-80
2023/11/12 03:41:05;;;;;;;11.20;6.18;;;;;;;;;;5924483;29;20059;-82
2023/11/12 03:44:07;;;;;;;12.70;6.57;;;;;;;;;;5922119;30;20059;-81
2023/11/12 03:47:09;;;;;;;12.13;6.70;;;;;;;;;;5905131;29;20059;-82
2023/11/12 03:50:11;;;;;;;15.20;7.25;;;;;;;;;;5924263;29;20424;-80
2023/11/12 03:53:12;;;;;;;12.70;7.00;;;;;;;;;;5918358;29;20059;-82
2023/11/12 03:56:14;;;;;;;12.13;7.07;;;;;;;;;;5917556;29;20059;-83
2023/11/12 03:59:16;;;;;;;12.02;6.95;;;;;;;;;;5938216;29;20077;-80
2023/11/12 04:02:20;;;;;;;14.02;6.90;;;;;;;;;;5920725;29;20115;-81
2023/11/12 04:05:22;;;;;;;10.05;5.80;;;;;;;;;;5938576;29;20047;-83
2023/11/12 04:08:23;;;;;;;10.45;6.40;;;;;;;;;;5910553;30;20055;-82
2023/11/12 04:11:26;;;;;;;13.50;6.32;;;;;;;;;;5938973;29;20051;-82
2023/11/12 04:14:27;;;;;;;9.73;6.18;;;;;;;;;;5917198;30;20056;-83
2023/11/12 04:17:31;;;;;;;38.22;18.30;;;;;;;;;;5921135;29;20051;-80
2023/11/12 04:20:33;;;;;;;44.08;19.42;;;;;;;;;;5919407;29;20415;-82
2023/11/12 04:23:35;;;;;;;14.57;7.22;;;;;;;;;;5919761;29;20047;-82
2023/11/12 04:26:37;;;;;;;18.13;8.88;;;;;;;;;;5937106;29;20222;-80
2023/11/12 04:29:38;;;;;;;34.42;14.65;;;;;;;;;;5902556;29;20070;-82
2023/11/12 04:32:40;;;;;;;24.63;11.80;;;;;;;;;;5917683;29;21251;-83
2023/11/12 04:35:42;;;;;;;13.68;7.13;;;;;;;;;;5919379;30;20051;-81
2023/11/12 04:38:44;;;;;;;12.77;6.35;;;;;;;;;;5935671;29;20062;-82
2023/11/12 04:41:45;;;;;;;13.65;7.38;;;;;;;;;;5907717;29;20051;-81
2023/11/12 04:44:47;;;;;;;15.23;7.75;;;;;;;;;;5898324;30;20059;-82
2023/11/12 04:47:49;;;;;;;12.27;6.97;;;;;;;;;;5914398;30;20246;-82
2023/11/12 04:50:50;;;;;;;13.60;6.88;;;;;;;;;;5917494;30;20055;-84
2023/11/12 04:53:52;;;;;;;11.38;6.95;;;;;;;;;;5914399;30;20051;-84
2023/11/12 04:56:54;;;;;;;11.65;6.43;;;;;;;;;;5913194;30;20196;-85
2023/11/12 04:59:55;;;;;;;12.35;6.90;;;;;;;;;;5913095;30;20369;-84
2023/11/12 05:02:57;;;;;;;12.95;7.30;;;;;;;;;;5910974;30;20094;-86
2023/11/12 05:05:59;;;;;;;14.80;7.15;;;;;;;;;;5926742;30;20051;-87
2023/11/12 05:09:01;;;;;;;13.70;7.50;;;;;;;;;;5919610;29;20048;-85
2023/11/12 05:12:03;;;;;;;10.77;6.57;;;;;;;;;;5911069;30;20050;-86
2023/11/12 05:15:07;;;;;;;49.00;24.55;;;;;;;;;;5897355;30;20520;-85
2023/11/12 05:18:08;;;;;;;25.63;14.50;;;;;;;;;;5908571;30;20139;-85
2023/11/12 05:21:10;;;;;;;20.88;10.63;;;;;;;;;;5909808;30;20132;-85
2023/11/12 05:24:12;;;;;;;13.85;8.30;;;;;;;;;;5907396;30;20055;-85
2023/11/12 05:27:14;;;;;;;12.35;7.32;;;;;;;;;;5909650;30;20492;-84
2023/11/12 05:30:16;;;;;;;11.55;6.30;;;;;;;;;;5913870;30;20071;-86
2023/11/12 05:33:19;;;;;;;13.13;7.28;;;;;;;;;;5908843;29;20056;-85
2023/11/12 05:36:20;;;;;;;13.10;6.63;;;;;;;;;;5915781;29;20574;-85
2023/11/12 05:39:22;;;;;;;11.27;6.00;;;;;;;;;;5915317;29;20457;-86
2023/11/12 05:42:24;;;;;;;13.82;6.60;;;;;;;;;;5914834;29;20055;-83
2023/11/12 05:45:25;;;;;;;13.65;6.95;;;;;;;;;;5902429;29;20782;-82
2023/11/12 05:48:27;;;;;;;12.88;6.90;;;;;;;;;;5922039;29;20043;-83
2023/11/12 05:51:29;;;;;;;13.57;6.65;;;;;;;;;;5915259;30;20748;-82
2023/11/12 05:54:31;;;;;;;10.67;6.10;;;;;;;;;;5902140;29;20047;-84
2023/11/12 05:57:33;;;;;;;10.68;5.82;;;;;;;;;;5918846;29;20055;-85
2023/11/12 06:00:35;;;;;;;17.27;7.28;;;;;;;;;;5916715;29;20058;-85
2023/11/12 06:03:36;;;;;;;12.75;7.00;;;;;;;;;;5912652;29;20055;-85
2023/11/12 06:06:39;;;;;;;11.68;6.32;;;;;;;;;;5901463;29;20059;-85
2023/11/12 06:09:43;;;;;;;11.05;5.65;;;;;;;;;;5912419;29;20071;-84
2023/11/12 06:12:45;;;;;;;9.20;5.30;;;;;;;;;;5915725;29;20095;-85
2023/11/12 06:15:47;;;;;;;13.43;5.45;;;;;;;;;;5901046;29;20067;-84
2023/11/12 06:18:48;;;;;;;11.07;6.20;;;;;;;;;;5923403;29;20075;-84
2023/11/12 06:21:51;;;;;;;12.38;5.57;;;;;;;;;;5913498;29;20572;-86
2023/11/12 06:24:52;;;;;;;10.68;5.63;;;;;;;;;;5914553;29;20059;-86
2023/11/12 06:27:54;;;;;;;13.73;5.18;;;;;;;;;;5913832;29;20534;-84
2023/11/12 06:30:57;;;;;;;12.20;5.03;;;;;;;;;;5913095;29;20702;-84
2023/11/12 06:33:59;;;;;;;11.98;5.85;;;;;;;;;;5912327;29;20055;-84
2023/11/12 06:37:02;;;;;;;13.20;5.47;;;;;;;;;;5915029;29;20098;-83
2023/11/12 06:40:06;;;;;;;;;;;;;;;;;;5914734;29;20054;-83
2023/11/12 06:43:08;;;;;;;;;;;;;;;;;;5926673;29;20007;-84
2023/11/12 06:46:10;;;;;;;9.95;5.72;;;;;;;;;;5910301;29;19929;-84
2023/11/12 06:49:12;;;;;;;10.23;5.40;;;;;;;;;;5915674;29;20059;-84
2023/11/12 06:52:15;;;;;;;11.38;5.82;;;;;;;;;;5916242;29;20457;-85
2023/11/12 06:55:17;;;;;;;12.32;6.25;;;;;;;;;;5935426;29;20265;-83
2023/11/12 06:58:19;;;;;;;18.30;10.30;;;;;;;;;;5922862;29;20050;-84
2023/11/12 07:01:20;;;;;;;29.33;17.70;;;;;;;;;;5921622;30;20692;-86
2023/11/12 07:04:22;;;;;;;21.20;11.57;;;;;;;;;;5905005;29;20046;-83
2023/11/12 07:07:24;;;;;;;26.10;13.25;;;;;;;;;;5917438;30;20054;-84
2023/11/12 07:10:26;;;;;;;26.20;12.50;;;;;;;;;;5914216;30;20058;-85
2023/11/12 07:13:27;;;;;;;30.13;16.20;;;;;;;;;;5914222;29;20136;-83
2023/11/12 07:16:29;;;;;;;41.90;19.50;;;;;;;;;;5934703;29;20035;-85
2023/11/12 07:19:31;;;;;;;37.03;17.10;;;;;;;;;;5901874;30;20054;-86
2023/11/12 07:22:35;;;;;;;27.10;13.85;;;;;;;;;;5930508;29;20107;-85
2023/11/12 07:25:37;;;;;;;17.33;8.45;;;;;;;;;;5930223;29;20051;-84
2023/11/12 07:28:39;;;;;;;27.65;14.27;;;;;;;;;;5902683;30;20092;-84
2023/11/12 07:31:42;;;;;;;14.43;7.95;;;;;;;;;;5930964;29;20055;-84
2023/11/12 07:34:44;;;;;;;28.98;20.05;;;;;;;;;;5905332;30;20043;-86
2023/11/12 07:37:46;;;;;;;15.13;9.88;;;;;;;;;;5920782;30;20091;-86
2023/11/12 07:40:48;;;;;;;18.65;9.40;;;;;;;;;;5935559;29;20687;-85
2023/11/12 07:43:49;;;;;;;14.90;9.05;;;;;;;;;;5934535;29;20131;-85
2023/11/12 07:46:51;;;;;;;19.83;10.40;;;;;;;;;;5932781;29;20098;-85
2023/11/12 07:49:53;;;;;;;15.32;8.35;;;;;;;;;;5920687;29;20551;-85
2023/11/12 07:52:55;;;;;;;12.80;7.63;;;;;;;;;;5919672;30;20056;-85
2023/11/12 07:55:57;;;;;;;14.48;7.40;;;;;;;;;;5905252;30;20051;-83
2023/11/12 07:58:59;;;;;;;17.30;10.15;;;;;;;;;;5921305;30;20071;-84
2023/11/12 08:02:01;;;;;;;24.60;12.88;;;;;;;;;;5920835;30;20066;-85
2023/11/12 08:05:07;;;;;;;25.23;13.80;;;;;;;;;;5903438;29;20076;-85
2023/11/12 08:08:09;;;;;;;21.33;10.77;;;;;;;;;;5903768;29;20100;-85
2023/11/12 08:11:11;;;;;;;17.20;8.88;;;;;;;;;;5933713;29;20055;-84
2023/11/12 08:14:14;;;;;;;14.52;7.18;;;;;;;;;;5916647;29;20055;-84
2023/11/12 08:17:16;;;;;;;11.65;6.53;;;;;;;;;;5917632;30;20059;-85
2023/11/12 08:20:18;;;;;;;10.48;5.40;;;;;;;;;;5933352;29;20047;-85
2023/11/12 08:23:20;;;;;;;10.50;5.75;;;;;;;;;;5912221;29;20138;-84
2023/11/12 08:26:21;;;;;;;10.60;5.53;;;;;;;;;;5916042;30;20047;-83
2023/11/12 08:29:23;;;;;;;8.20;4.38;;;;;;;;;;5910548;29;20404;-84
2023/11/12 08:32:25;;;;;;;12.82;5.18;;;;;;;;;;5916496;29;20055;-82
2023/11/12 08:35:29;;;;;;;8.15;4.28;;;;;;;;;;5914640;29;20415;-84
2023/11/12 08:38:34;;;;;;;11.05;4.72;;;;;;;;;;5931178;29;20146;-84
2023/11/12 08:41:37;;;;;;;10.02;5.20;;;;;;;;;;5911013;29;20066;-85
2023/11/12 08:44:38;;;;;;;8.75;5.05;;;;;;;;;;5905234;29;20613;-85
2023/11/12 08:47:40;;;;;;;7.35;4.00;;;;;;;;;;5908720;29;20086;-85
2023/11/12 08:50:42;;;;;;;10.07;5.00;;;;;;;;;;5907741;30;20146;-84
2023/11/12 08:53:44;;;;;;;12.45;6.82;;;;;;;;;;5906601;30;20056;-83
2023/11/12 08:56:46;;;;;;;9.35;5.20;;;;;;;;;;5909254;30;20055;-84
2023/11/12 08:59:47;;;;;;;9.40;4.20;;;;;;;;;;5900267;30;20056;-83
2023/11/12 09:02:49;;;;;;;9.07;4.53;;;;;;;;;;5909772;30;20051;-83
2023/11/12 09:05:51;;;;;;;8.18;5.05;;;;;;;;;;5911197;30;20051;-82
2023/11/12 09:08:53;;;;;;;7.60;4.28;;;;;;;;;;5911133;30;20135;-83
2023/11/12 09:11:56;;;;;;;10.63;5.63;;;;;;;;;;5909960;29;20197;-83
2023/11/12 09:14:58;;;;;;;13.40;6.20;;;;;;;;;;5908670;30;20047;-81
2023/11/12 09:17:59;;;;;;;7.97;5.22;;;;;;;;;;5905873;30;20145;-81
2023/11/12 09:21:01;;;;;;;6.95;4.20;;;;;;;;;;5910436;30;20111;-83
2023/11/12 09:24:03;;;;;;;98.22;30.52;;;;;;;;;;5910863;30;20055;-83
2023/11/12 09:27:05;;;;;;;11.25;5.78;;;;;;;;;;5911835;30;20051;-82
2023/11/12 09:30:09;;;;;;;13.10;7.32;;;;;;;;;;5900617;30;20436;-82
2023/11/12 09:33:12;;;;;;;20.95;9.95;;;;;;;;;;5914965;30;20369;-82
2023/11/12 09:36:14;;;;;;;10.80;5.70;;;;;;;;;;5895665;30;20081;-83
2023/11/12 09:39:16;;;;;;;7.93;4.97;;;;;;;;;;5900833;30;20476;-83
2023/11/12 09:42:22;;;;;;;9.48;5.60;;;;;;;;;;5921533;30;20056;-81
2023/11/12 09:45:28;;;;;;;7.75;4.70;;;;;;;;;;5912354;30;20093;-79
2023/11/12 09:48:35;;;;;;;5.43;3.67;;;;;;;;;;5914967;30;20047;-79
2023/11/12 09:51:40;;;;;;;12.27;6.80;;;;;;;;;;5927954;29;20122;-80
2023/11/12 09:54:43;;;;;;;13.27;6.50;;;;;;;;;;5914518;29;20058;-81
2023/11/12 09:57:46;;;;;;;6.85;4.80;;;;;;;;;;5911334;30;20052;-82
2023/11/12 10:00:49;;;;;;;13.82;6.38;;;;;;;;;;5915004;30;20051;-82
2023/11/12 10:03:50;;;;;;;8.80;5.03;;;;;;;;;;5921741;30;20161;-81
2023/11/12 10:06:53;;;;;;;13.68;6.70;;;;;;;;;;5897476;30;20047;-83
2023/11/12 10:09:55;;;;;;;9.00;6.20;;;;;;;;;;5917954;30;20059;-81
2023/11/12 10:12:58;;;;;;;7.47;3.92;;;;;;;;;;5901282;29;20130;-83
2023/11/12 10:16:00;;;;;;;7.70;3.80;;;;;;;;;;5916316;29;20051;-81
2023/11/12 10:19:13;;;;;;;8.50;4.35;;;;;;;;;;5897098;29;20051;-84
2023/11/12 10:22:16;;;;;;;15.82;7.13;;;;;;;;;;5912091;29;20063;-82
2023/11/12 10:25:37;;;;;;;8.77;5.65;;;;;;;;;;5921344;29;20051;-81
2023/11/12 10:28:40;;;;;;;8.80;6.28;;;;;;;;;;5937398;29;20062;-81
2023/11/12 10:31:41;;;;;;;13.90;9.27;;;;;;;;;;5920128;29;20059;-83
2023/11/12 10:34:49;;;;;;;15.23;8.90;;;;;;;;;;5927839;29;20055;-81
2023/11/12 10:38:01;;;;;;;11.55;6.50;;;;;;;;;;5920585;29;20055;-82
2023/11/12 10:41:05;;;;;;;11.55;5.53;;;;;;;;;;5920092;29;20425;-82
2023/11/12 10:44:11;;;;;;;7.72;5.20;;;;;;;;;;5937739;29;20051;-81
2023/11/12 10:47:16;;;;;;;11.85;7.00;;;;;;;;;;5939274;29;20050;-83
2023/11/12 10:50:18;;;;;;;12.45;8.02;;;;;;;;;;5944587;29;20081;-81
2023/11/12 10:53:22;;;;;;;8.27;4.63;;;;;;;;;;5930474;29;20055;-82
2023/11/12 10:56:24;;;;;;;9.02;5.00;;;;;;;;;;5938439;29;20099;-81
2023/11/12 10:59:26;;;;;;;9.48;5.80;;;;;;;;;;5917465;29;20062;-82
2023/11/12 11:02:35;;;;;;;8.55;4.97;;;;;;;;;;5917016;30;20055;-82
2023/11/12 11:05:37;;;;;;;11.75;6.13;;;;;;;;;;5905475;30;20055;-81
2023/11/12 11:08:39;;;;;;;8.85;5.30;;;;;;;;;;5919826;30;20062;-83
2023/11/12 11:11:41;;;;;;;8.23;5.00;;;;;;;;;;5914552;30;20109;-82
2023/11/12 11:14:43;;;;;;;8.70;4.82;;;;;;;;;;5904246;30;20070;-82
2023/11/12 11:17:44;;;;;;;11.63;5.20;;;;;;;;;;5940725;29;20131;-83
2023/11/12 11:21:15;;;;;;;9.70;4.90;;;;;;;;;;5906956;30;20060;-82
2023/11/12 11:24:45;;;;;;;21.00;14.95;;;;;;;;;;5913404;29;20143;-81
2023/11/12 11:27:47;;;;;;;9.77;5.57;;;;;;;;;;5932350;29;20062;-82
2023/11/12 11:31:10;;;;;;;13.80;6.88;;;;;;;;;;5933438;29;20059;-81
2023/11/12 11:34:13;;;;;;;10.98;5.13;;;;;;;;;;5917054;30;20059;-81
2023/11/12 11:37:15;;;;;;;11.98;5.32;;;;;;;;;;5925289;30;20241;-82
2023/11/12 11:40:30;;;;;;;13.35;6.78;;;;;;;;;;5929875;29;20051;-82
2023/11/12 11:43:32;;;;;;;10.63;5.82;;;;;;;;;;5930264;29;20056;-83
2023/11/12 11:46:33;;;;;;;11.23;5.90;;;;;;;;;;5897006;29;20055;-82
2023/11/12 11:49:36;;;;;;;42.67;14.85;;;;;;;;;;5910799;30;20090;-82
2023/11/12 11:52:41;;;;;;;45.58;15.55;;;;;;;;;;5910439;29;20055;-83
2023/11/12 11:55:47;;;;;;;7.55;4.15;;;;;;;;;;5925179;29;20055;-82
2023/11/12 11:58:52;;;;;;;27.52;10.52;;;;;;;;;;5883064;29;20055;-82
2023/11/12 12:01:59;;;;;;;36.53;13.15;;;;;;;;;;5903792;29;20082;-83
2023/11/12 12:05:00;;;;;;;10.98;5.05;;;;;;;;;;5904207;29;21208;-83
2023/11/12 12:08:03;;;;;;;10.20;5.72;;;;;;;;;;5904565;29;20294;-82
2023/11/12 12:11:15;;;;;;;;;;;;;;;;;;5890497;29;20062;-82
2023/11/12 12:14:20;;;;;;;8.52;5.00;;;;;;;;;;5913778;29;20032;-83
2023/11/12 12:17:22;;;;;;;9.73;4.90;;;;;;;;;;5913215;29;20062;-81
2023/11/12 12:20:36;;;;;;;11.13;6.97;;;;;;;;;;5918299;29;20055;-84
2023/11/12 12:23:38;;;;;;;6.85;3.78;;;;;;;;;;5914794;29;20074;-82
2023/11/12 12:26:40;;;;;;;7.38;4.65;;;;;;;;;;5929233;29;20533;-81
2023/11/12 12:29:46;;;;;;;22.52;13.88;;;;;;;;;;5897692;29;20228;-82
2023/11/12 12:32:48;;;;;;;9.65;5.22;;;;;;;;;;5898129;30;20078;-82
2023/11/12 12:35:49;;;;;;;6.57;4.10;;;;;;;;;;5894433;30;20226;-83
2023/11/12 12:38:55;;;;;;;8.48;3.95;;;;;;;;;;5913966;30;20071;-81
2023/11/12 12:42:03;;;;;;;9.32;4.35;;;;;;;;;;5909593;30;20060;-84
2023/11/12 12:45:15;;;;;;;7.32;3.83;;;;;;;;;;5906519;30;20131;-83
2023/11/12 12:48:22;;;;;;;8.35;7.07;;;;;;;;;;5899590;30;20070;-83
2023/11/12 12:51:24;;;;;;;8.70;5.15;;;;;;;;;;5901035;30;20078;-84
2023/11/12 12:54:29;;;;;;;4.63;2.92;;;;;;;;;;5913812;30;20048;-84
2023/11/12 12:57:31;;;;;;;7.20;3.47;;;;;;;;;;5927820;30;20059;-81
2023/11/12 13:00:33;;;;;;;6.43;3.10;;;;;;;;;;5917885;30;20059;-82
2023/11/12 13:03:34;;;;;;;8.30;4.47;;;;;;;;;;5915222;30;20127;-83
2023/11/12 13:06:37;;;;;;;6.25;3.53;;;;;;;;;;5924149;29;20062;-81
2023/11/12 13:09:41;;;;;;;4.88;2.53;;;;;;;;;;5905904;30;20056;-81
2023/11/12 13:12:42;;;;;;;6.55;3.63;;;;;;;;;;5918649;30;20074;-82
2023/11/12 13:15:47;;;;;;;6.43;3.50;;;;;;;;;;5924612;29;20056;-82
2023/11/12 13:18:51;;;;;;;7.32;4.35;;;;;;;;;;5918332;29;20120;-83
2023/11/12 13:21:53;;;;;;;;;;;;;;;;;;5913089;30;20054;-82
2023/11/12 13:25:00;;;;;;;12.07;5.38;;;;;;;;;;5898099;29;20386;-83
2023/11/12 13:28:05;;;;;;;12.38;5.57;;;;;;;;;;5898777;30;20138;-82
2023/11/12 13:31:07;;;;;;;20.30;8.05;;;;;;;;;;5913150;30;20119;-81
2023/11/12 13:34:10;;;;;;;11.02;4.82;;;;;;;;;;5898945;30;20127;-83
2023/11/12 13:37:12;;;;;;;7.90;3.40;;;;;;;;;;5909187;30;20125;-84
2023/11/12 13:40:14;;;;;;;7.15;4.00;;;;;;;;;;5913613;30;20051;-81
2023/11/12 13:43:16;;;;;;;8.67;4.40;;;;;;;;;;5926031;30;20554;-83
2023/11/12 13:46:19;;;;;;;6.63;4.35;;;;;;;;;;5897507;30;20075;-83
2023/11/12 13:49:20;;;;;;;8.63;4.00;;;;;;;;;;5896764;30;20048;-84
2023/11/12 13:52:22;;;;;;;6.15;3.13;;;;;;;;;;5912737;30;20047;-83
2023/11/12 13:55:27;;;;;;;6.88;3.50;;;;;;;;;;5909323;30;20051;-83
2023/11/12 13:58:29;;;;;;;6.15;3.58;;;;;;;;;;5911421;30;20551;-81
2023/11/12 14:01:32;;;;;;;7.95;4.20;;;;;;;;;;5914387;29;20055;-80
2023/11/12 14:04:34;;;;;;;13.95;8.27;;;;;;;;;;5903573;30;20180;-80
2023/11/12 14:07:39;;;;;;;8.80;5.20;;;;;;;;;;5900227;29;20044;-80
2023/11/12 14:10:44;;;;;;;6.22;3.50;;;;;;;;;;5893539;29;20062;-79
2023/11/12 14:13:45;;;;;;;9.50;4.63;;;;;;;;;;5917025;29;20055;-81
2023/11/12 14:16:48;;;;;;;7.75;4.38;;;;;;;;;;5920262;29;20052;-80
2023/11/12 14:19:49;;;;;;;9.50;3.58;;;;;;;;;;5924247;29;20066;-82
2023/11/12 14:22:51;;;;;;;9.40;3.58;;;;;;;;;;5925806;29;20051;-81
2023/11/12 14:25:55;;;;;;;5.15;3.42;;;;;;;;;;5937701;29;20154;-82
2023/11/12 14:28:56;;;;;;;7.47;3.15;;;;;;;;;;5938312;29;20328;-83
2023/11/12 14:31:58;;;;;;;7.88;3.70;;;;;;;;;;5920613;29;20792;-85
2023/11/12 14:35:00;;;;;;;4.50;3.13;;;;;;;;;;5933186;29;20058;-83
2023/11/12 14:38:02;;;;;;;6.93;3.28;;;;;;;;;;5933668;29;20051;-84
2023/11/12 14:41:04;;;;;;;7.25;3.45;;;;;;;;;;5916780;29;20054;-84
2023/11/12 14:44:07;;;;;;;7.97;3.88;;;;;;;;;;5909001;29;20124;-81
2023/11/12 14:47:08;;;;;;;6.13;3.28;;;;;;;;;;5923128;29;20051;-82
2023/11/12 14:50:11;;;;;;;7.05;4.03;;;;;;;;;;5939858;29;20569;-83
2023/11/12 14:53:13;;;;;;;9.70;5.78;;;;;;;;;;5939108;29;20047;-82
2023/11/12 14:56:15;;;;;;;7.40;4.82;;;;;;;;;;5922315;29;20047;-82
2023/11/12 14:59:17;;;;;;;12.75;6.70;;;;;;;;;;5924206;29;20525;-83
2023/11/12 15:02:21;;;;;;;12.55;5.88;;;;;;;;;;5924906;29;20061;-82
2023/11/12 15:05:23;;;;;;;14.40;6.00;;;;;;;;;;5938449;29;20059;-83
2023/11/12 15:08:25;;;;;;;16.40;7.88;;;;;;;;;;5925584;29;20058;-82
2023/11/12 15:11:30;;;;;;;11.48;4.88;;;;;;;;;;5935672;29;20459;-84
2023/11/12 15:14:33;;;;;;;18.50;8.27;;;;;;;;;;5933448;29;20055;-84
2023/11/12 15:17:35;;;;;;;31.80;14.50;;;;;;;;;;5914276;29;20315;-86
2023/11/12 15:20:37;;;;;;;18.30;7.00;;;;;;;;;;5916688;29;20089;-85
2023/11/12 15:23:39;;;;;;;28.25;12.45;;;;;;;;;;5933633;29;20107;-83
2023/11/12 15:26:44;;;;;;;77.35;29.70;;;;;;;;;;5916872;29;20097;-84
2023/11/12 15:29:46;;;;;;;46.00;19.00;;;;;;;;;;5931264;29;20059;-84
2023/11/12 15:32:48;;;;;;;20.92;9.15;;;;;;;;;;5915049;29;20075;-83
2023/11/12 15:35:50;;;;;;;27.40;10.83;;;;;;;;;;5917154;29;20534;-83
2023/11/12 15:38:52;;;;;;;56.60;21.92;;;;;;;;;;5932861;29;20544;-82
2023/11/12 15:41:54;;;;;;;41.70;16.23;;;;;;;;;;5927418;29;20146;-82
2023/11/12 15:44:56;;;;;;;31.40;12.32;;;;;;;;;;5929139;29;20078;-83
2023/11/12 15:47:57;;;;;;;30.38;13.70;;;;;;;;;;5913123;29;20115;-81
2023/11/12 15:51:00;;;;;;;78.45;31.08;;;;;;;;;;5930637;29;20067;-81
2023/11/12 15:54:02;;;;;;;32.63;14.60;;;;;;;;;;5929594;29;20059;-81
2023/11/12 15:57:03;;;;;;;39.58;14.30;;;;;;;;;;5922918;29;20144;-81
2023/11/12 16:00:13;;;;;;;16.45;7.00;;;;;;;;;;5937528;29;20051;-83
2023/11/12 16:03:16;;;;;;;20.40;8.52;;;;;;;;;;5904864;29;20055;-82
2023/11/12 16:06:19;;;;;;;;;;;;;;;;;;5935127;29;20058;-80
2023/11/12 16:09:21;;;;;;;26.67;12.52;;;;;;;;;;5928951;29;19936;-80
2023/11/12 16:12:24;;;;;;;40.60;18.10;;;;;;;;;;5917624;29;20139;-81
2023/11/12 16:15:29;;;;;;;;;;;;;;;;;;5917555;29;20078;-81
2023/11/12 16:18:31;;;;;;;23.45;13.35;;;;;;;;;;5931801;29;19937;-81
2023/11/12 16:21:32;;;;;;;30.50;16.50;;;;;;;;;;5917140;29;20541;-82
2023/11/12 16:24:34;;;;;;;70.55;27.20;;;;;;;;;;5917618;29;20051;-81
2023/11/12 16:27:36;;;;;;;78.07;32.90;;;;;;;;;;5922385;29;20067;-82
2023/11/12 16:30:38;;;;;;;85.00;34.25;;;;;;;;;;5915674;29;20068;-82
2023/11/12 16:33:40;;;;;;;72.38;34.15;;;;;;;;;;5937171;29;20075;-80
2023/11/12 16:36:42;;;;;;;70.60;32.80;;;;;;;;;;5927014;29;20062;-81
2023/11/12 16:39:46;;;;;;;43.55;23.42;;;;;;;;;;5902577;29;20096;-82
2023/11/12 16:42:48;;;;;;;49.53;21.58;;;;;;;;;;5931967;29;20074;-83
2023/11/12 16:45:51;;;;;;;36.80;20.90;;;;;;;;;;5932307;29;20775;-81
2023/11/12 16:48:53;;;;;;;21.90;12.13;;;;;;;;;;5918617;29;20554;-81
2023/11/12 16:51:56;;;;;;;26.27;15.65;;;;;;;;;;5932412;29;20046;-79
2023/11/12 16:54:59;;;;;;;23.10;12.15;;;;;;;;;;5948720;29;20066;-81
2023/11/12 16:58:01;;;;;;;41.42;24.05;;;;;;;;;;5907565;29;20164;-79
2023/11/12 17:01:02;;;;;;;20.73;12.15;;;;;;;;;;5916281;29;20058;-81
2023/11/12 17:04:04;;;;;;;19.08;10.25;;;;;;;;;;5922444;29;20039;-80
2023/11/12 17:07:10;;;;;;;46.90;22.77;;;;;;;;;;5920232;29;20074;-81
2023/11/12 17:10:16;;;;;;;39.58;25.52;;;;;;;;;;5904863;29;20129;-79
2023/11/12 17:13:17;;;;;;;27.15;18.20;;;;;;;;;;5930871;29;20122;-81
2023/11/12 17:16:19;;;;;;;23.10;15.13;;;;;;;;;;5930692;29;20086;-81
2023/11/12 17:19:21;;;;;;;38.50;18.25;;;;;;;;;;5938144;29;20059;-82
2023/11/12 17:22:24;;;;;;;29.83;16.52;;;;;;;;;;5918953;29;20059;-81
2023/11/12 17:25:27;;;;;;;25.17;13.20;;;;;;;;;;5921357;29;20066;-82
2023/11/12 17:28:29;;;;;;;23.67;12.57;;;;;;;;;;5939419;29;20063;-84
2023/11/12 17:31:32;;;;;;;28.65;14.65;;;;;;;;;;5941246;29;20055;-82
2023/11/12 17:34:33;;;;;;;29.42;13.82;;;;;;;;;;5928609;29;20059;-82
2023/11/12 17:37:35;;;;;;;23.08;12.25;;;;;;;;;;5939553;29;20055;-81
2023/11/12 17:40:37;;;;;;;27.45;12.20;;;;;;;;;;5907571;29;20051;-81
2023/11/12 17:43:38;;;;;;;27.27;12.35;;;;;;;;;;5916910;29;20063;-80
2023/11/12 17:46:44;;;;;;;32.95;18.10;;;;;;;;;;5915533;29;20051;-83
2023/11/12 17:49:54;;;;;;;45.50;20.35;;;;;;;;;;5933910;29;20102;-83
2023/11/12 17:52:56;;;;;;;126.03;45.83;;;;;;;;;;5918363;29;20117;-84
2023/11/12 17:55:58;;;;;;;52.40;22.02;;;;;;;;;;5917461;29;20055;-81
2023/11/12 17:59:00;;;;;;;27.73;13.00;;;;;;;;;;5916049;29;20128;-83
2023/11/12 18:02:02;;;;;;;26.40;11.75;;;;;;;;;;5929108;29;20448;-81
2023/11/12 18:05:04;;;;;;;47.05;20.98;;;;;;;;;;5933891;29;20435;-82